createdAt,value
2022-09-02T00:01:24.913Z,16.90
2022-09-02T00:03:55.754Z,17.00
2022-09-02T00:06:22.606Z,16.90
2022-09-02T00:08:49.950Z,16.90
2022-09-02T00:11:21.650Z,17.10
2022-09-02T00:13:49.166Z,17.30
2022-09-02T00:16:17.434Z,17.30
2022-09-02T00:18:46.019Z,17.40
2022-09-02T00:21:14.971Z,17.60
2022-09-02T00:23:43.802Z,17.70
2022-09-02T00:26:11.239Z,17.70
2022-09-02T00:28:39.117Z,17.50
2022-09-02T00:31:08.094Z,17.40
2022-09-02T00:33:35.493Z,17.40
2022-09-02T00:36:04.009Z,17.40
2022-09-02T00:38:35.602Z,17.30
2022-09-02T00:41:05.858Z,17.50
2022-09-02T00:43:40.948Z,17.70
2022-09-02T00:46:08.051Z,17.90
2022-09-02T00:48:37.522Z,17.80
2022-09-02T00:51:04.778Z,17.90
2022-09-02T00:53:34.093Z,17.90
2022-09-02T00:56:02.326Z,17.90
2022-09-02T00:58:34.943Z,17.90
2022-09-02T01:01:01.896Z,17.80
2022-09-02T01:03:31.742Z,17.80
2022-09-02T01:05:59.810Z,17.70
2022-09-02T01:08:34.617Z,18.10
2022-09-02T01:11:02.930Z,18.20
2022-09-02T01:13:40.071Z,18.10
2022-09-02T01:16:24.846Z,18.00
2022-09-02T01:18:55.432Z,18.10
2022-09-02T01:21:23.245Z,18.10
2022-09-02T01:23:51.004Z,18.20
2022-09-02T01:26:18.177Z,18.40
2022-09-02T01:28:45.334Z,18.60
2022-09-02T01:31:12.239Z,18.80
2022-09-02T01:33:39.145Z,18.90
2022-09-02T01:36:06.209Z,19.00
2022-09-02T01:38:33.091Z,19.10
2022-09-02T01:41:00.035Z,18.80
2022-09-02T01:43:28.349Z,18.70
2022-09-02T01:45:57.124Z,18.60
2022-09-02T01:48:24.477Z,18.50
2022-09-02T01:50:58.433Z,18.60
2022-09-02T01:53:25.945Z,18.50
2022-09-02T01:55:53.100Z,18.60
2022-09-02T01:58:20.424Z,18.90
2022-09-02T02:00:47.988Z,19.10
2022-09-02T02:03:15.042Z,19.30
2022-09-02T02:05:41.927Z,19.10
2022-09-02T02:08:08.818Z,18.60
2022-09-02T02:10:35.679Z,18.00
2022-09-02T02:13:03.142Z,17.80
2022-09-02T02:17:55.722Z,17.50
2022-09-02T02:20:23.033Z,17.50
2022-09-02T02:22:50.260Z,17.40
2022-09-02T02:25:18.795Z,17.20
2022-09-02T02:27:45.771Z,17.20
2022-09-02T02:30:15.580Z,17.30
2022-09-02T02:32:44.002Z,17.30
2022-09-02T02:35:11.435Z,17.20
2022-09-02T02:37:38.560Z,17.20
2022-09-02T02:40:06.871Z,17.10
2022-09-02T02:42:35.505Z,16.90
2022-09-02T02:45:03.314Z,16.90
2022-09-02T02:47:30.145Z,16.80
2022-09-02T02:49:57.004Z,16.80
2022-09-02T02:52:24.099Z,16.90
2022-09-02T02:54:50.987Z,17.30
2022-09-02T02:57:17.768Z,17.60
2022-09-02T02:59:44.594Z,17.90
2022-09-02T03:02:11.465Z,18.00
2022-09-02T03:04:39.948Z,18.10
2022-09-02T03:07:06.952Z,18.30
2022-09-02T03:09:34.362Z,18.50
2022-09-02T03:12:01.605Z,18.50
2022-09-02T03:14:28.565Z,18.70
2022-09-02T03:16:55.448Z,18.70
2022-09-02T03:19:22.395Z,18.50
2022-09-02T03:21:49.234Z,18.60
2022-09-02T03:24:16.206Z,18.60
2022-09-02T03:26:43.265Z,18.70
2022-09-02T03:29:10.127Z,18.70
2022-09-02T03:31:37.524Z,18.70
2022-09-02T03:34:04.716Z,18.40
2022-09-02T03:36:36.161Z,17.90
2022-09-02T03:39:04.789Z,17.60
2022-09-02T03:41:36.990Z,17.10
2022-09-02T03:44:04.366Z,16.80
2022-09-02T03:46:31.567Z,16.60
2022-09-02T03:48:58.502Z,16.60
2022-09-02T03:51:27.384Z,16.60
2022-09-02T03:53:54.278Z,16.60
2022-09-02T03:56:21.453Z,16.60
2022-09-02T03:58:50.921Z,16.90
2022-09-02T04:01:20.913Z,17.10
2022-09-02T04:03:48.541Z,17.40
2022-09-02T04:06:17.891Z,17.50
2022-09-02T04:08:45.092Z,17.30
2022-09-02T04:11:16.414Z,17.60
2022-09-02T04:13:43.978Z,17.40
2022-09-02T04:16:17.619Z,17.30
2022-09-02T04:18:44.522Z,17.20
2022-09-02T04:21:12.186Z,17.30
2022-09-02T04:23:39.703Z,17.50
2022-09-02T04:26:11.048Z,17.50
2022-09-02T04:28:37.945Z,17.30
2022-09-02T04:31:10.050Z,17.20
2022-09-02T04:33:38.073Z,17.60
2022-09-02T04:36:07.807Z,17.70
2022-09-02T04:38:35.033Z,17.80
2022-09-02T04:41:14.578Z,17.80
2022-09-02T04:43:42.163Z,17.90
2022-09-02T04:46:12.129Z,17.70
2022-09-02T04:48:39.701Z,17.80
2022-09-02T04:51:09.832Z,17.70
2022-09-02T04:53:37.394Z,17.90
2022-09-02T04:56:09.064Z,17.90
2022-09-02T04:58:36.799Z,17.90
2022-09-02T05:01:15.197Z,18.10
2022-09-02T05:03:43.577Z,17.90
2022-09-02T05:06:13.218Z,17.90
2022-09-02T05:08:42.249Z,17.90
2022-09-02T05:11:11.712Z,17.80
2022-09-02T05:13:39.775Z,17.40
2022-09-02T05:16:07.551Z,17.60
2022-09-02T05:18:34.897Z,17.80
2022-09-02T05:21:06.606Z,18.10
2022-09-02T05:23:34.755Z,18.30
2022-09-02T05:26:06.344Z,18.60
2022-09-02T05:28:33.654Z,18.70
2022-09-02T05:31:09.060Z,18.60
2022-09-02T05:33:40.781Z,18.50
2022-09-02T05:36:09.890Z,18.60
2022-09-02T05:38:36.730Z,18.80
2022-09-02T05:41:08.114Z,18.60
2022-09-02T05:43:39.399Z,18.20
2022-09-02T05:46:12.024Z,17.90
2022-09-02T05:48:57.742Z,17.40
2022-09-02T05:51:25.977Z,17.30
2022-09-02T05:53:57.452Z,17.20
2022-09-02T05:56:25.348Z,16.70
2022-09-02T05:58:52.470Z,16.60
2022-09-02T06:01:19.925Z,16.30
2022-09-02T06:03:47.249Z,16.10
2022-09-02T06:06:14.533Z,16.10
2022-09-02T06:08:41.742Z,16.00
2022-09-02T06:11:10.575Z,15.90
2022-09-02T06:13:39.967Z,15.80
2022-09-02T06:16:10.662Z,15.80
2022-09-02T06:18:37.735Z,15.90
2022-09-02T06:21:06.201Z,15.90
2022-09-02T06:23:35.978Z,16.00
2022-09-02T06:26:03.002Z,16.00
2022-09-02T06:28:29.859Z,16.10
2022-09-02T06:30:57.923Z,16.20
2022-09-02T06:33:25.092Z,16.20
2022-09-02T06:35:52.126Z,16.20
2022-09-02T06:38:20.453Z,16.10
2022-09-02T06:40:54.862Z,16.10
2022-09-02T06:43:22.109Z,16.10
2022-09-02T06:45:49.317Z,16.20
2022-09-02T06:48:16.265Z,16.20
2022-09-02T06:50:45.297Z,16.30
2022-09-02T06:53:12.924Z,16.40
2022-09-02T06:55:42.090Z,16.60
2022-09-02T06:58:09.808Z,16.80
2022-09-02T07:00:37.515Z,17.00
2022-09-02T07:03:23.941Z,17.10
2022-09-02T07:06:19.432Z,16.90
2022-09-02T07:08:46.692Z,17.00
2022-09-02T07:11:23.257Z,17.10
2022-09-02T07:13:50.945Z,17.10
2022-09-02T07:16:26.592Z,17.30
2022-09-02T07:18:54.468Z,17.20
2022-09-02T07:21:21.319Z,17.20
2022-09-02T07:23:48.330Z,17.30
2022-09-02T07:26:17.414Z,17.40
2022-09-02T07:28:44.601Z,17.40
2022-09-02T07:31:12.601Z,17.30
2022-09-02T07:33:39.800Z,17.10
2022-09-02T07:36:11.110Z,17.10
2022-09-02T07:38:40.993Z,17.00
2022-09-02T07:41:09.605Z,16.90
2022-09-02T07:43:37.850Z,17.30
2022-09-02T07:46:06.383Z,17.40
2022-09-02T07:48:35.024Z,17.40
2022-09-02T07:51:02.640Z,17.50
2022-09-02T07:53:29.593Z,17.40
2022-09-02T07:55:56.381Z,17.70
2022-09-02T07:58:23.241Z,18.00
2022-09-02T08:00:51.224Z,17.90
2022-09-02T08:03:19.770Z,17.90
2022-09-02T08:05:47.580Z,17.90
2022-09-02T08:08:17.084Z,17.80
2022-09-02T08:10:43.919Z,17.70
2022-09-02T08:13:11.171Z,17.70
2022-09-02T08:15:39.022Z,17.80
2022-09-02T08:18:07.642Z,17.70
2022-09-02T08:20:36.563Z,17.40
2022-09-02T08:23:11.760Z,17.40
2022-09-02T08:25:45.487Z,17.40
2022-09-02T08:28:12.565Z,17.60
2022-09-02T08:30:39.631Z,17.70
2022-09-02T08:33:06.775Z,17.90
2022-09-02T08:35:33.945Z,18.00
2022-09-02T08:38:02.350Z,18.10
2022-09-02T08:40:38.456Z,18.10
2022-09-02T08:43:24.817Z,18.20
2022-09-02T08:45:54.413Z,18.20
2022-09-02T08:48:40.087Z,18.40
2022-09-02T08:51:37.722Z,18.20
2022-09-02T08:54:30.305Z,18.20
2022-09-02T08:56:57.359Z,18.30
2022-09-02T08:59:27.348Z,18.40
2022-09-02T09:02:10.389Z,18.40
2022-09-02T09:04:52.219Z,18.80
2022-09-02T09:07:28.554Z,18.90
2022-09-02T09:09:59.959Z,19.30
2022-09-02T09:12:48.857Z,19.10
2022-09-02T09:15:43.334Z,19.00
2022-09-02T09:18:16.152Z,19.10
2022-09-02T09:20:45.106Z,19.30
2022-09-02T09:23:34.189Z,19.30
2022-09-02T09:26:27.864Z,19.30
2022-09-02T09:28:56.230Z,19.30
2022-09-02T09:31:32.401Z,19.20
2022-09-02T09:34:02.006Z,19.20
2022-09-02T09:36:41.054Z,19.50
2022-09-02T09:39:27.434Z,19.60
2022-09-02T09:41:56.887Z,19.80
2022-09-02T09:44:46.011Z,19.80
2022-09-02T09:47:22.813Z,20.00
2022-09-02T09:49:51.492Z,20.10
2022-09-02T09:52:29.542Z,19.80
2022-09-02T09:55:12.612Z,19.70
2022-09-02T09:57:41.913Z,19.90
2022-09-02T10:00:18.178Z,20.10
2022-09-02T10:02:53.691Z,20.30
2022-09-02T10:05:38.892Z,20.20
2022-09-02T10:08:18.171Z,20.10
2022-09-02T10:11:06.770Z,20.20
2022-09-02T10:13:36.217Z,20.20
2022-09-02T10:16:29.250Z,20.20
2022-09-02T10:19:14.124Z,20.50
2022-09-02T10:21:59.649Z,20.60
2022-09-02T10:24:48.147Z,20.70
2022-09-02T10:27:34.118Z,20.90
2022-09-02T10:30:25.059Z,20.80
2022-09-02T10:33:15.459Z,20.60
2022-09-02T10:35:45.973Z,20.60
2022-09-02T10:38:38.144Z,20.60
2022-09-02T10:41:26.525Z,20.60
2022-09-02T10:44:05.865Z,20.60
2022-09-02T10:47:04.818Z,20.80
2022-09-02T10:49:43.576Z,20.80
2022-09-02T10:52:24.320Z,20.70
2022-09-02T10:54:51.045Z,20.40
2022-09-02T10:57:26.407Z,20.70
2022-09-02T11:00:05.269Z,20.90
2022-09-02T11:02:41.558Z,20.90
2022-09-02T11:05:24.286Z,20.70
2022-09-02T11:08:14.037Z,20.70
2022-09-02T11:11:02.134Z,21.00
2022-09-02T11:14:08.098Z,21.00
2022-09-02T11:16:46.131Z,21.20
2022-09-02T11:19:18.841Z,20.80
2022-09-02T11:21:59.940Z,20.80
2022-09-02T11:25:07.346Z,21.00
2022-09-02T11:27:47.406Z,21.20
2022-09-02T11:30:23.148Z,21.00
2022-09-02T11:33:15.047Z,21.30
2022-09-02T11:35:45.037Z,21.40
2022-09-02T11:38:35.215Z,21.60
2022-09-02T11:41:39.092Z,21.80
2022-09-02T11:44:41.685Z,22.00
2022-09-02T11:47:34.428Z,21.70
2022-09-02T11:50:40.301Z,22.40
2022-09-02T11:53:20.689Z,22.40
2022-09-02T11:56:12.002Z,22.60
2022-09-02T11:58:53.193Z,22.90
2022-09-02T12:01:37.451Z,22.60
2022-09-02T12:07:09.552Z,23.00
2022-09-02T12:10:06.487Z,23.30
2022-09-02T12:12:38.990Z,23.20
2022-09-02T12:15:06.705Z,23.10
2022-09-02T12:18:05.398Z,23.40
2022-09-02T12:20:41.737Z,23.60
2022-09-02T12:23:29.976Z,24.00
2022-09-02T12:26:06.506Z,23.70
2022-09-02T12:28:34.209Z,23.90
2022-09-02T12:31:10.317Z,24.10
2022-09-02T12:33:44.177Z,24.40
2022-09-02T12:36:36.530Z,24.50
2022-09-02T12:39:25.044Z,24.60
2022-09-02T12:42:07.531Z,24.90
2022-09-02T12:45:03.043Z,24.90
2022-09-02T12:47:57.583Z,24.90
2022-09-02T12:50:33.283Z,25.50
2022-09-02T12:53:23.721Z,26.20
2022-09-02T12:55:58.646Z,26.80
2022-09-02T12:58:27.995Z,26.60
2022-09-02T13:01:06.884Z,26.50
2022-09-02T13:03:39.413Z,26.20
2022-09-02T13:06:25.066Z,26.60
2022-09-02T13:09:13.569Z,26.50
2022-09-02T13:11:49.582Z,26.20
2022-09-02T13:14:52.719Z,26.00
2022-09-02T13:17:48.256Z,26.40
2022-09-02T13:20:45.679Z,26.30
2022-09-02T13:23:15.612Z,26.40
2022-09-02T13:25:55.218Z,26.40
2022-09-02T13:29:08.597Z,26.80
2022-09-02T13:31:35.460Z,27.20
2022-09-02T13:34:12.513Z,26.90
2022-09-02T13:36:46.482Z,27.00
2022-09-02T13:39:21.373Z,27.10
2022-09-02T13:41:49.347Z,26.60
2022-09-02T13:44:28.579Z,26.60
2022-09-02T13:47:13.572Z,26.80
2022-09-02T13:49:47.147Z,27.10
2022-09-02T13:52:18.363Z,26.70
2022-09-02T13:54:50.708Z,27.00
2022-09-02T13:57:25.909Z,27.70
2022-09-02T13:59:55.534Z,28.20
2022-09-02T14:02:31.698Z,28.20
2022-09-02T14:05:20.676Z,28.90
2022-09-02T14:07:51.267Z,28.80
2022-09-02T14:10:22.285Z,28.80
2022-09-02T14:12:49.891Z,28.70
2022-09-02T14:15:23.893Z,28.40
2022-09-02T14:18:11.099Z,28.00
2022-09-02T14:21:01.468Z,27.80
2022-09-02T14:23:33.459Z,27.50
2022-09-02T14:26:03.006Z,27.60
2022-09-02T14:28:32.785Z,27.70
2022-09-02T14:31:04.218Z,28.60
2022-09-02T14:33:40.186Z,28.20
2022-09-02T14:36:13.368Z,27.40
2022-09-02T14:38:46.346Z,27.30
2022-09-02T14:41:25.769Z,27.40
2022-09-02T14:43:59.112Z,27.50
2022-09-02T14:46:37.356Z,27.20
2022-09-02T14:49:23.193Z,27.50
2022-09-02T14:51:56.839Z,27.90
2022-09-02T14:54:42.862Z,28.30
2022-09-02T14:57:33.178Z,28.10
2022-09-02T15:00:13.847Z,28.30
2022-09-02T15:02:43.764Z,28.30
2022-09-02T15:05:14.594Z,28.80
2022-09-02T15:07:42.000Z,28.10
2022-09-02T15:10:09.923Z,28.10
2022-09-02T15:13:08.644Z,27.70
2022-09-02T15:15:35.834Z,27.20
2022-09-02T15:18:03.305Z,26.70
2022-09-02T15:20:32.822Z,26.30
2022-09-02T15:22:59.766Z,26.10
2022-09-02T15:25:27.113Z,26.20
2022-09-02T15:27:54.114Z,26.40
2022-09-02T15:30:20.964Z,26.80
2022-09-02T15:32:48.422Z,26.60
2022-09-02T15:35:15.358Z,26.60
2022-09-02T15:37:42.587Z,26.40
2022-09-02T15:40:10.223Z,26.60
2022-09-02T15:42:38.870Z,26.40
2022-09-02T15:45:09.104Z,26.10
2022-09-02T15:47:37.372Z,25.50
2022-09-02T15:50:06.167Z,25.00
2022-09-02T15:52:34.864Z,24.70
2022-09-02T15:55:01.884Z,24.40
2022-09-02T15:57:30.517Z,24.20
2022-09-02T15:59:57.543Z,24.00
2022-09-02T16:02:24.839Z,24.10
2022-09-02T16:04:51.803Z,24.00
2022-09-02T16:07:18.694Z,24.30
2022-09-02T16:09:45.512Z,24.50
2022-09-02T16:12:12.681Z,24.50
2022-09-02T16:14:39.509Z,24.40
2022-09-02T16:17:10.170Z,24.70
2022-09-02T16:19:36.973Z,24.60
2022-09-02T16:22:04.233Z,24.70
2022-09-02T16:24:31.680Z,24.80
2022-09-02T16:26:58.695Z,24.90
2022-09-02T16:29:27.174Z,25.10
2022-09-02T16:32:23.762Z,25.50
2022-09-02T16:34:42.330Z,25.60
2022-09-02T16:37:09.087Z,25.80
2022-09-02T16:39:36.395Z,25.80
2022-09-02T16:42:04.603Z,25.80
2022-09-02T16:44:34.934Z,25.60
2022-09-02T16:47:03.459Z,25.20
2022-09-02T16:49:30.217Z,24.70
2022-09-02T16:51:58.977Z,24.40
2022-09-02T16:54:30.882Z,24.00
2022-09-02T16:56:57.918Z,24.10
2022-09-02T16:59:24.791Z,24.10
2022-09-02T17:01:51.700Z,24.30
2022-09-02T17:04:18.515Z,24.30
2022-09-02T17:06:45.316Z,24.40
2022-09-02T17:09:12.103Z,24.60
2022-09-02T17:11:41.150Z,24.90
2022-09-02T17:14:15.184Z,25.10
2022-09-02T17:16:49.388Z,25.40
2022-09-02T17:19:26.187Z,25.70
2022-09-02T17:21:55.667Z,25.90
2022-09-02T17:24:24.841Z,26.50
2022-09-02T17:26:55.974Z,26.90
2022-09-02T17:29:48.863Z,27.00
2022-09-02T17:32:17.038Z,26.40
2022-09-02T17:34:44.030Z,25.90
2022-09-02T17:37:10.930Z,25.30
2022-09-02T17:39:37.729Z,24.30
2022-09-02T17:42:05.269Z,23.80
2022-09-02T17:44:36.200Z,23.80
2022-09-02T17:47:08.267Z,23.50
2022-09-02T17:49:36.900Z,23.60
2022-09-02T17:52:08.171Z,23.90
2022-09-02T17:54:36.025Z,24.20
2022-09-02T17:57:07.662Z,24.20
2022-09-02T17:59:44.742Z,24.10
2022-09-02T18:02:35.722Z,24.40
2022-09-02T18:05:15.580Z,24.50
2022-09-02T18:07:46.092Z,24.00
2022-09-02T18:10:17.185Z,24.00
2022-09-02T18:12:43.954Z,24.00
2022-09-02T18:15:15.729Z,23.80
2022-09-02T18:17:52.502Z,24.10
2022-09-02T18:20:45.557Z,24.40
2022-09-02T18:23:20.953Z,24.60
2022-09-02T18:26:10.529Z,24.80
2022-09-02T18:29:03.815Z,24.80
2022-09-02T18:31:40.850Z,24.90
2022-09-02T18:34:46.933Z,24.80
2022-09-02T18:37:19.579Z,24.80
2022-09-02T18:40:11.918Z,24.90
2022-09-02T18:42:47.516Z,25.00
2022-09-02T18:45:26.182Z,24.90
2022-09-02T18:48:01.334Z,24.80
2022-09-02T18:50:49.619Z,24.20
2022-09-02T18:53:27.259Z,23.90
2022-09-02T18:55:54.852Z,23.80
2022-09-02T18:58:33.900Z,23.70
2022-09-02T19:01:09.960Z,23.40
2022-09-02T19:03:37.795Z,23.40
2022-09-02T19:06:10.691Z,23.50
2022-09-02T19:08:38.363Z,23.50
2022-09-02T19:11:12.907Z,23.40
2022-09-02T19:13:47.394Z,23.30
2022-09-02T19:16:22.703Z,23.20
2022-09-02T19:18:50.835Z,23.00
2022-09-02T19:21:45.416Z,22.90
2022-09-02T19:24:21.432Z,22.90
2022-09-02T19:26:49.175Z,22.90
2022-09-02T19:29:16.929Z,22.90
2022-09-02T19:31:46.747Z,22.80
2022-09-02T19:34:16.297Z,22.80
2022-09-02T19:36:46.215Z,22.70
2022-09-02T19:39:13.073Z,22.60
2022-09-02T19:41:40.514Z,22.50
2022-09-02T19:44:07.377Z,22.40
2022-09-02T19:49:21.040Z,22.10
2022-09-02T19:51:48.685Z,21.80
2022-09-02T19:54:17.844Z,21.60
2022-09-02T19:56:45.177Z,21.60
2022-09-02T19:59:13.542Z,21.50
2022-09-02T20:01:40.416Z,21.50
2022-09-02T20:04:07.330Z,21.60
2022-09-02T20:06:34.847Z,21.70
2022-09-02T20:09:01.719Z,21.40
2022-09-02T20:11:29.469Z,21.10
2022-09-02T20:13:56.594Z,20.90
2022-09-02T20:16:25.922Z,20.80
2022-09-02T20:18:54.607Z,20.80
2022-09-02T20:21:26.620Z,20.60
2022-09-02T20:23:54.891Z,20.80
2022-09-02T20:26:30.080Z,21.00
2022-09-02T20:29:13.349Z,21.10
2022-09-02T20:31:52.646Z,21.30
2022-09-02T20:34:36.157Z,21.20
2022-09-02T20:37:19.393Z,21.20
2022-09-02T20:40:05.552Z,21.20
2022-09-02T20:42:54.570Z,21.30
2022-09-02T20:45:29.851Z,21.30
2022-09-02T20:48:25.266Z,21.20
2022-09-02T20:51:35.249Z,21.40
2022-09-02T20:54:17.607Z,21.50
2022-09-02T20:56:53.554Z,21.40
2022-09-02T20:59:20.377Z,21.30
2022-09-02T21:01:48.835Z,21.30
2022-09-02T21:04:24.700Z,21.30
2022-09-02T21:07:01.249Z,21.30
2022-09-02T21:09:28.458Z,21.40
2022-09-02T21:12:03.906Z,21.50
2022-09-02T21:15:09.299Z,21.50
2022-09-02T21:18:13.377Z,21.30
2022-09-02T21:21:01.380Z,21.30
2022-09-02T21:24:09.874Z,21.20
2022-09-02T21:26:36.762Z,21.00
2022-09-02T21:29:23.504Z,21.10
2022-09-02T21:32:16.399Z,21.10
2022-09-02T21:34:53.778Z,21.10
2022-09-02T21:37:22.189Z,21.10
2022-09-02T21:40:05.971Z,20.70
2022-09-02T21:42:38.495Z,20.80
2022-09-02T21:45:18.874Z,20.90
2022-09-02T21:47:57.023Z,20.70
2022-09-02T21:50:53.296Z,20.70
2022-09-02T21:53:45.169Z,20.80
2022-09-02T21:56:18.056Z,20.40
2022-09-02T21:58:47.225Z,20.40
2022-09-02T22:01:27.799Z,20.30
2022-09-02T22:04:05.043Z,20.10
2022-09-02T22:06:43.171Z,20.40
2022-09-02T22:09:22.915Z,20.30
2022-09-02T22:11:57.438Z,20.20
2022-09-02T22:14:44.371Z,20.40
2022-09-02T22:17:30.327Z,20.70
2022-09-02T22:20:02.333Z,20.90
2022-09-02T22:22:38.929Z,21.10
2022-09-02T22:25:15.663Z,21.20
2022-09-02T22:28:10.694Z,21.30
2022-09-02T22:30:44.058Z,21.40
2022-09-02T22:33:14.973Z,21.40
2022-09-02T22:36:03.544Z,21.50
2022-09-02T22:38:49.252Z,21.40
2022-09-02T22:41:34.559Z,21.40
2022-09-02T22:44:17.385Z,21.50
2022-09-02T22:47:07.113Z,21.50
2022-09-02T22:50:00.812Z,21.40
2022-09-02T22:52:46.330Z,21.30
2022-09-02T22:55:18.679Z,21.30
2022-09-02T22:58:19.735Z,21.30
2022-09-02T23:00:54.950Z,21.20
2022-09-02T23:03:42.779Z,20.90
2022-09-02T23:06:44.875Z,21.00
2022-09-02T23:09:14.120Z,20.90
2022-09-02T23:11:50.409Z,21.10
2022-09-02T23:14:26.704Z,21.20
2022-09-02T23:17:05.239Z,21.20
2022-09-02T23:19:53.730Z,21.30
2022-09-02T23:22:41.061Z,21.20
2022-09-02T23:25:19.993Z,21.30
2022-09-02T23:28:20.913Z,21.20
2022-09-02T23:31:15.824Z,21.30
2022-09-02T23:34:04.052Z,21.30
2022-09-02T23:36:34.349Z,21.20
2022-09-02T23:39:11.932Z,20.90
2022-09-02T23:41:43.196Z,20.80
2022-09-02T23:44:10.456Z,20.80
2022-09-02T23:47:00.160Z,20.90
2022-09-02T23:49:51.055Z,20.90
2022-09-02T23:52:31.485Z,20.80
2022-09-02T23:55:20.996Z,20.90
2022-09-02T23:57:56.845Z,20.90
